Terminal Aerodrome Forecast
Issued by NWS Blacksburg, VA

Current Version | Previous Version | Text Only | Print | Product List | Glossary On
Versions: 1 2 3 4 5 6 7 8 9 10 11 12
000
FTUS41 KRNK 271144
TAFROA
TAF
KROA 271144Z 2712/2812 VRB03KT P6SM SCT040 SCT250
     FM271500 10008KT P6SM BKN045 BKN250
     FM280100 09006KT P6SM BKN050
     FM280600 08005KT P6SM SCT045=

USA.gov is the U.S. government's official web portal to all federal, state and local government web resources and services.